createdAt,value
2022-09-04T00:02:13.695Z,18.8
2022-09-04T00:16:41.356Z,18.1
2022-09-04T00:31:08.983Z,18.2
2022-09-04T00:45:33.689Z,17.4
2022-09-04T01:00:00.913Z,17.9
2022-09-04T01:14:28.535Z,17.4
2022-09-04T04:28:08.847Z,16.7
2022-09-04T04:42:30.870Z,15.5
2022-09-04T04:57:00.129Z,15.8
2022-09-04T05:11:24.338Z,15.4
2022-09-04T05:25:52.370Z,15.3
2022-09-04T05:40:22.464Z,16.2
2022-09-04T05:54:49.882Z,16.4
2022-09-04T06:09:19.341Z,16.5
2022-09-04T06:23:48.853Z,16.7
2022-09-04T06:38:18.613Z,17
2022-09-04T06:52:48.507Z,17.7
2022-09-04T07:07:19.285Z,18.2
2022-09-04T07:21:50.475Z,18.9
2022-09-04T07:36:29.098Z,22.1
2022-09-04T07:51:06.069Z,24.1
2022-09-04T08:05:35.416Z,25.6
2022-09-04T08:20:15.644Z,26.6
2022-09-04T08:34:47.813Z,27.1
2022-09-04T08:49:16.411Z,27.3
2022-09-04T09:03:46.618Z,30.1
2022-09-04T09:18:13.766Z,29.8
2022-09-04T09:32:40.505Z,29.4
2022-09-04T09:46:59.036Z,28
2022-09-04T10:01:25.197Z,27.2
2022-09-04T10:15:52.690Z,27.2
2022-09-04T10:30:21.137Z,28.3
2022-09-04T10:44:50.240Z,28.2
2022-09-04T10:59:13.759Z,27
2022-09-04T11:13:40.961Z,26.5
2022-09-04T11:28:15.850Z,28
2022-09-04T11:42:40.484Z,27.3
2022-09-04T11:57:16.377Z,27.1
2022-09-04T12:11:44.535Z,27.8
2022-09-04T12:26:11.497Z,28.6
2022-09-04T12:40:34.685Z,27.1
2022-09-04T12:55:11.259Z,27.9
2022-09-04T13:09:45.489Z,29
2022-09-04T13:24:16.252Z,27.8
2022-09-04T13:38:48.263Z,28
2022-09-04T13:53:11.649Z,27.8
2022-09-04T14:07:45.600Z,27.9
2022-09-04T14:22:15.870Z,28
2022-09-04T14:36:40.717Z,28.3
2022-09-04T14:51:10.779Z,28.3
2022-09-04T15:05:38.909Z,28.2
2022-09-04T15:20:12.518Z,28.4
2022-09-04T15:34:44.868Z,28.1
2022-09-04T15:49:08.290Z,28.1
2022-09-04T16:03:36.610Z,28.2
2022-09-04T16:18:10.556Z,28
2022-09-04T16:32:36.700Z,27.7
2022-09-04T16:47:10.921Z,27.4
2022-09-04T17:01:34.812Z,27.7
2022-09-04T17:16:03.425Z,27.3
2022-09-04T17:30:31.562Z,27.4
2022-09-04T17:44:57.836Z,26.9
2022-09-04T17:59:24.614Z,26.3
2022-09-04T18:13:52.135Z,25.8
2022-09-04T18:28:19.918Z,25.6
2022-09-04T18:45:47.580Z,24.9
2022-09-04T19:05:04.288Z,24.6
2022-09-04T19:19:32.666Z,23.8
2022-09-04T19:34:01.249Z,23.8
2022-09-04T19:48:30.398Z,23
2022-09-04T20:02:54.929Z,22.6
2022-09-04T20:17:22.751Z,21.9
2022-09-04T20:31:50.382Z,21.3
2022-09-04T20:47:55.124Z,21.8
2022-09-04T21:06:57.725Z,21.8
2022-09-04T21:21:25.169Z,21.4
2022-09-04T21:35:51.902Z,20.5
2022-09-04T21:50:37.242Z,20.6
2022-09-04T22:05:05.452Z,20.3
2022-09-04T22:19:34.432Z,20.5
2022-09-04T22:34:16.310Z,20.5
2022-09-04T22:48:36.194Z,20
2022-09-04T23:03:10.651Z,19.4
2022-09-04T23:17:33.473Z,19
2022-09-04T23:32:01.400Z,18.9
2022-09-04T23:46:31.443Z,19.3
